createdAt,value
2017-12-25T00:00:39.960Z,10.41
2017-12-25T00:03:07.380Z,10.41
2017-12-25T00:05:34.843Z,10.42
2017-12-25T00:08:02.254Z,10.40
2017-12-25T00:10:29.671Z,10.41
2017-12-25T00:12:57.100Z,10.41
2017-12-25T00:15:24.582Z,10.40
2017-12-25T00:17:52.026Z,10.39
2017-12-25T00:20:19.447Z,10.36
2017-12-25T00:22:46.935Z,10.34
2017-12-25T00:25:14.387Z,10.36
2017-12-25T00:27:41.803Z,10.35
2017-12-25T00:30:09.220Z,10.35
2017-12-25T00:32:36.758Z,10.34
2017-12-25T00:35:04.171Z,10.35
2017-12-25T00:37:31.675Z,10.32
2017-12-25T00:39:59.116Z,10.32
2017-12-25T00:42:26.590Z,10.33
2017-12-25T00:44:54.083Z,10.32
2017-12-25T00:47:21.527Z,10.33
2017-12-25T00:49:48.938Z,10.29
2017-12-25T00:52:16.350Z,10.27
2017-12-25T00:54:43.838Z,10.30
2017-12-25T00:57:11.323Z,10.26
2017-12-25T00:59:38.735Z,10.25
2017-12-25T01:02:06.164Z,10.26
2017-12-25T01:04:33.576Z,10.25
2017-12-25T01:07:00.998Z,10.24
2017-12-25T01:09:28.438Z,10.23
2017-12-25T01:11:55.862Z,10.21
2017-12-25T01:14:23.281Z,10.23
2017-12-25T01:16:50.733Z,10.23
2017-12-25T01:19:18.154Z,10.20
2017-12-25T01:21:45.563Z,10.18
2017-12-25T01:24:13.055Z,10.14
2017-12-25T01:26:40.471Z,10.14
2017-12-25T01:29:07.884Z,10.12
2017-12-25T01:31:35.414Z,10.14
2017-12-25T01:34:02.819Z,10.10
2017-12-25T01:36:30.332Z,10.11
2017-12-25T01:38:57.752Z,10.08
2017-12-25T01:41:25.158Z,10.05
2017-12-25T01:43:52.618Z,10.04
2017-12-25T01:46:20.034Z,10.05
2017-12-25T01:48:47.443Z,10.06
2017-12-25T01:51:14.903Z,10.04
2017-12-25T01:53:43.684Z,10.06
2017-12-25T01:56:12.958Z,10.07
2017-12-25T01:58:42.298Z,10.07
2017-12-25T02:01:17.358Z,10.08
2017-12-25T02:03:44.779Z,10.08
2017-12-25T02:06:24.110Z,10.08
2017-12-25T02:08:51.643Z,10.09
2017-12-25T02:11:19.059Z,10.05
2017-12-25T02:13:46.484Z,10.09
2017-12-25T02:16:13.891Z,10.06
2017-12-25T02:18:41.307Z,10.03
2017-12-25T02:21:08.734Z,10.02
2017-12-25T02:23:36.146Z,10.02
2017-12-25T02:26:03.596Z,9.99
2017-12-25T02:28:31.097Z,10.01
2017-12-25T02:30:58.509Z,10.02
2017-12-25T02:33:25.923Z,10.05
2017-12-25T02:35:53.458Z,10.05
2017-12-25T02:38:20.855Z,10.05
2017-12-25T02:40:48.268Z,10.04
2017-12-25T02:43:15.691Z,10.07
2017-12-25T02:45:43.103Z,10.03
2017-12-25T02:48:10.542Z,9.99
2017-12-25T02:50:37.971Z,9.99
2017-12-25T02:53:05.407Z,9.99
2017-12-25T02:55:32.805Z,9.94
2017-12-25T02:58:00.208Z,9.89
2017-12-25T03:00:27.637Z,9.91
2017-12-25T03:02:55.084Z,9.93
2017-12-25T03:05:22.482Z,9.94
2017-12-25T03:07:49.947Z,9.92
2017-12-25T03:10:17.345Z,9.88
2017-12-25T03:12:44.742Z,9.87
2017-12-25T03:15:12.168Z,9.85
2017-12-25T03:17:39.572Z,9.84
2017-12-25T03:20:07.080Z,9.84
2017-12-25T03:22:34.501Z,9.82
2017-12-25T03:25:01.902Z,9.81
2017-12-25T03:27:29.307Z,9.79
2017-12-25T03:29:56.804Z,9.74
2017-12-25T03:32:24.207Z,9.75
2017-12-25T03:34:51.611Z,9.74
2017-12-25T03:37:19.043Z,9.73
2017-12-25T03:39:46.449Z,9.73
2017-12-25T03:42:13.972Z,9.69
2017-12-25T03:44:41.430Z,9.67
2017-12-25T03:47:08.825Z,9.67
2017-12-25T03:49:36.233Z,9.68
2017-12-25T03:52:03.819Z,9.70
2017-12-25T03:54:31.258Z,9.71
2017-12-25T03:56:58.647Z,9.67
2017-12-25T03:59:26.068Z,9.67
2017-12-25T04:01:53.473Z,9.68
2017-12-25T04:04:20.888Z,9.73
2017-12-25T04:06:48.356Z,9.69
2017-12-25T04:09:15.763Z,9.66
2017-12-25T04:11:43.167Z,9.68
2017-12-25T04:14:10.612Z,9.67
2017-12-25T04:16:38.032Z,9.64
2017-12-25T04:19:05.532Z,9.70
2017-12-25T04:21:32.968Z,9.73
2017-12-25T04:24:00.372Z,9.73
2017-12-25T04:26:27.770Z,9.72
2017-12-25T04:28:55.195Z,9.69
2017-12-25T04:31:22.607Z,9.74
2017-12-25T04:33:50.013Z,9.68
2017-12-25T04:36:17.474Z,9.63
2017-12-25T04:38:44.880Z,9.60
2017-12-25T04:41:12.339Z,9.61
2017-12-25T04:43:39.781Z,9.60
2017-12-25T04:46:07.196Z,9.57
2017-12-25T04:48:34.603Z,9.55
2017-12-25T04:51:02.012Z,9.55
2017-12-25T04:53:29.423Z,9.51
2017-12-25T04:55:56.880Z,9.47
2017-12-25T04:58:24.288Z,9.41
2017-12-25T05:00:51.691Z,9.37
2017-12-25T05:03:19.133Z,9.36
2017-12-25T05:05:46.627Z,9.35
2017-12-25T05:08:14.060Z,9.35
2017-12-25T05:10:41.520Z,9.36
2017-12-25T05:13:08.936Z,9.36
2017-12-25T05:15:36.416Z,9.38
2017-12-25T05:18:03.838Z,9.43
2017-12-25T05:20:31.245Z,9.43
2017-12-25T05:22:58.656Z,9.42
2017-12-25T05:25:26.079Z,9.41
2017-12-25T05:27:53.493Z,9.41
2017-12-25T05:30:20.903Z,9.41
2017-12-25T05:32:48.335Z,9.41
2017-12-25T05:35:15.776Z,9.38
2017-12-25T05:37:43.192Z,9.36
2017-12-25T05:40:10.647Z,9.33
2017-12-25T05:42:38.068Z,9.30
2017-12-25T05:45:05.485Z,9.27
2017-12-25T05:47:33.061Z,9.28
2017-12-25T05:50:00.464Z,9.31
2017-12-25T05:52:27.872Z,9.32
2017-12-25T05:54:55.299Z,9.29
2017-12-25T05:57:22.775Z,9.26
2017-12-25T05:59:50.173Z,9.26
2017-12-25T06:02:17.613Z,9.25
2017-12-25T06:04:45.021Z,9.23
2017-12-25T06:07:12.433Z,9.21
2017-12-25T06:09:39.879Z,9.22
2017-12-25T06:12:07.329Z,9.25
2017-12-25T06:14:34.732Z,9.27
2017-12-25T06:17:02.152Z,9.25
2017-12-25T06:19:29.557Z,9.23
2017-12-25T06:21:57.014Z,9.24
2017-12-25T06:24:24.427Z,9.27
2017-12-25T06:26:51.832Z,9.29
2017-12-25T06:29:19.255Z,9.32
2017-12-25T06:31:46.677Z,9.34
2017-12-25T06:34:14.131Z,9.38
2017-12-25T06:36:41.581Z,9.43
2017-12-25T06:39:08.983Z,9.45
2017-12-25T06:41:36.443Z,9.47
2017-12-25T06:44:03.829Z,9.47
2017-12-25T06:46:31.237Z,9.49
2017-12-25T06:48:58.656Z,9.44
2017-12-25T06:51:26.122Z,9.39
2017-12-25T06:53:53.528Z,9.38
2017-12-25T06:56:20.932Z,9.36
2017-12-25T06:58:48.367Z,9.32
2017-12-25T07:01:15.774Z,9.31
2017-12-25T07:03:43.210Z,9.30
2017-12-25T07:06:10.659Z,9.31
2017-12-25T07:08:38.081Z,9.31
2017-12-25T07:11:05.481Z,9.35
2017-12-25T07:13:32.931Z,9.39
2017-12-25T07:16:00.327Z,9.41
2017-12-25T07:18:27.739Z,9.41
2017-12-25T07:20:55.186Z,9.40
2017-12-25T07:23:22.584Z,9.41
2017-12-25T07:25:49.999Z,9.45
2017-12-25T07:28:17.437Z,9.43
2017-12-25T07:30:44.841Z,9.40
2017-12-25T07:33:12.240Z,9.39
2017-12-25T07:35:39.716Z,9.40
2017-12-25T07:38:07.083Z,9.39
2017-12-25T07:40:34.539Z,9.41
2017-12-25T07:43:01.980Z,9.39
2017-12-25T07:45:29.433Z,9.37
2017-12-25T07:47:56.813Z,9.36
2017-12-25T07:50:24.271Z,9.31
2017-12-25T07:52:51.691Z,9.25
2017-12-25T07:55:19.088Z,9.20
2017-12-25T07:57:46.523Z,9.10
2017-12-25T08:00:13.963Z,9.09
2017-12-25T08:02:41.352Z,9.08
2017-12-25T08:05:08.798Z,9.04
2017-12-25T08:07:36.201Z,9.03
2017-12-25T08:10:03.618Z,9.04
2017-12-25T08:12:31.063Z,9.04
2017-12-25T08:14:58.461Z,9.04
2017-12-25T08:17:25.912Z,9.07
2017-12-25T08:19:53.324Z,9.11
2017-12-25T08:22:20.809Z,9.09
2017-12-25T08:24:48.259Z,9.11
2017-12-25T08:27:15.719Z,9.12
2017-12-25T08:29:43.119Z,9.14
2017-12-25T08:32:10.512Z,9.18
2017-12-25T08:34:37.963Z,9.20
2017-12-25T08:37:05.364Z,9.20
2017-12-25T08:39:32.771Z,9.26
2017-12-25T08:42:00.217Z,9.33
2017-12-25T08:44:27.707Z,9.37
2017-12-25T08:46:55.124Z,9.39
2017-12-25T08:49:22.574Z,9.40
2017-12-25T08:51:49.984Z,9.43
2017-12-25T08:54:17.426Z,9.45
2017-12-25T08:56:44.855Z,9.50
2017-12-25T08:59:12.260Z,9.53
2017-12-25T09:01:39.713Z,9.52
2017-12-25T09:04:07.155Z,9.54
2017-12-25T09:06:34.604Z,9.56
2017-12-25T09:09:02.003Z,9.56
2017-12-25T09:11:29.528Z,9.59
2017-12-25T09:13:56.991Z,9.62
2017-12-25T09:16:24.411Z,9.62
2017-12-25T09:18:51.903Z,9.63
2017-12-25T09:21:19.302Z,9.65
2017-12-25T09:23:46.712Z,9.65
2017-12-25T09:26:14.138Z,9.62
2017-12-25T09:28:41.627Z,9.61
2017-12-25T09:31:09.026Z,9.56
2017-12-25T09:33:36.467Z,9.50
2017-12-25T09:36:03.880Z,9.53
2017-12-25T09:38:31.285Z,9.56
2017-12-25T09:40:58.707Z,9.59
2017-12-25T09:43:26.107Z,9.60
2017-12-25T09:45:53.517Z,9.51
2017-12-25T09:48:20.983Z,9.37
2017-12-25T09:50:48.437Z,9.34
2017-12-25T09:53:15.875Z,9.29
2017-12-25T09:55:43.344Z,9.30
2017-12-25T09:58:10.802Z,9.30
2017-12-25T10:00:38.220Z,9.34
2017-12-25T10:03:05.619Z,9.27
2017-12-25T10:05:33.058Z,9.23
2017-12-25T10:08:00.464Z,9.22
2017-12-25T10:10:27.979Z,9.27
2017-12-25T10:12:55.415Z,9.28
2017-12-25T10:15:22.905Z,9.22
2017-12-25T10:17:50.309Z,9.25
2017-12-25T10:20:17.720Z,9.24
2017-12-25T10:22:45.166Z,9.27
2017-12-25T10:25:12.563Z,9.29
2017-12-25T10:27:39.973Z,9.31
2017-12-25T10:30:07.440Z,9.30
2017-12-25T10:32:35.744Z,9.35
2017-12-25T10:35:03.156Z,9.37
2017-12-25T10:37:30.579Z,9.38
2017-12-25T10:39:58.099Z,9.38
2017-12-25T10:42:25.495Z,9.39
2017-12-25T10:44:52.917Z,9.39
2017-12-25T10:47:20.352Z,9.39
2017-12-25T10:49:47.763Z,9.43
2017-12-25T10:52:15.188Z,9.43
2017-12-25T10:54:42.629Z,9.39
2017-12-25T10:57:10.020Z,9.38
2017-12-25T10:59:37.458Z,9.41
2017-12-25T11:02:04.868Z,9.40
2017-12-25T11:04:32.266Z,9.39
2017-12-25T11:06:59.691Z,9.37
2017-12-25T11:09:27.179Z,9.37
2017-12-25T11:11:54.635Z,9.36
2017-12-25T11:14:22.083Z,9.39
2017-12-25T11:16:49.494Z,9.41
2017-12-25T11:19:16.899Z,9.43
2017-12-25T11:21:44.359Z,9.45
2017-12-25T11:24:11.754Z,9.39
2017-12-25T11:26:39.159Z,9.38
2017-12-25T11:29:06.598Z,9.37
2017-12-25T11:31:34.088Z,9.36
2017-12-25T11:34:01.512Z,9.29
2017-12-25T11:36:28.934Z,9.28
2017-12-25T11:38:56.343Z,9.28
2017-12-25T11:41:23.788Z,9.32
2017-12-25T11:43:51.266Z,9.31
2017-12-25T11:46:18.724Z,9.37
2017-12-25T11:48:46.174Z,9.40
2017-12-25T11:51:13.599Z,9.39
2017-12-25T11:53:41.007Z,9.40
2017-12-25T11:56:08.459Z,9.37
2017-12-25T11:58:36.014Z,9.37
2017-12-25T12:01:03.429Z,9.34
2017-12-25T12:03:30.827Z,9.35
2017-12-25T12:05:58.283Z,9.36
2017-12-25T12:08:25.728Z,9.37
2017-12-25T12:10:53.123Z,9.40
2017-12-25T12:13:20.560Z,9.48
2017-12-25T12:15:48.008Z,9.47
2017-12-25T12:18:15.424Z,9.49
2017-12-25T12:20:42.920Z,9.55
2017-12-25T12:23:10.328Z,9.57
2017-12-25T12:25:37.734Z,9.62
2017-12-25T12:28:05.184Z,9.67
2017-12-25T12:30:32.591Z,9.66
2017-12-25T12:33:00.004Z,9.63
2017-12-25T12:35:27.448Z,9.63
2017-12-25T12:37:54.852Z,9.55
2017-12-25T12:40:22.263Z,9.47
2017-12-25T12:42:49.687Z,9.41
2017-12-25T12:45:17.099Z,9.35
2017-12-25T12:47:44.501Z,9.33
2017-12-25T12:50:11.924Z,9.29
2017-12-25T12:52:39.375Z,9.23
2017-12-25T12:55:06.791Z,9.22
2017-12-25T12:57:34.211Z,9.18
2017-12-25T13:00:01.614Z,9.16
2017-12-25T13:02:29.023Z,9.15
2017-12-25T13:04:56.447Z,9.12
2017-12-25T13:07:23.898Z,9.13
2017-12-25T13:09:51.319Z,9.13
2017-12-25T13:12:18.726Z,9.09
2017-12-25T13:14:46.136Z,9.09
2017-12-25T13:17:13.607Z,9.06
2017-12-25T13:19:41.011Z,9.06
2017-12-25T13:22:08.424Z,9.05
2017-12-25T13:24:35.877Z,9.06
2017-12-25T13:27:03.337Z,9.07
2017-12-25T13:29:30.747Z,9.03
2017-12-25T13:31:58.255Z,9.03
2017-12-25T13:34:25.675Z,9.04
2017-12-25T13:36:53.153Z,9.01
2017-12-25T13:39:20.567Z,9.03
2017-12-25T13:41:48.007Z,9.03
2017-12-25T13:44:15.414Z,8.98
2017-12-25T13:46:42.828Z,9.01
2017-12-25T13:49:10.244Z,8.98
2017-12-25T13:51:37.686Z,8.98
2017-12-25T13:54:05.084Z,8.97
2017-12-25T13:56:32.496Z,8.98
2017-12-25T13:58:59.930Z,8.98
2017-12-25T14:01:27.417Z,8.94
2017-12-25T14:03:55.489Z,8.94
2017-12-25T14:06:22.951Z,8.93
2017-12-25T14:08:50.366Z,8.95
2017-12-25T14:11:17.775Z,8.96
2017-12-25T14:13:45.236Z,8.95
2017-12-25T14:16:12.667Z,8.91
2017-12-25T14:18:40.066Z,8.88
2017-12-25T14:21:07.459Z,8.88
2017-12-25T14:23:34.907Z,8.90
2017-12-25T14:26:02.310Z,8.87
2017-12-25T14:28:29.703Z,8.85
2017-12-25T14:30:58.020Z,8.86
2017-12-25T14:33:25.427Z,8.86
2017-12-25T14:35:52.827Z,8.86
2017-12-25T14:38:20.293Z,8.84
2017-12-25T14:40:47.691Z,8.84
2017-12-25T14:43:15.220Z,8.81
2017-12-25T14:45:42.623Z,8.81
2017-12-25T14:48:10.027Z,8.80
2017-12-25T14:50:37.456Z,8.85
2017-12-25T14:53:04.887Z,8.76
2017-12-25T14:55:32.399Z,8.79
2017-12-25T14:57:59.836Z,8.77
2017-12-25T15:00:27.242Z,8.77
2017-12-25T15:02:54.659Z,8.79
2017-12-25T15:05:22.211Z,8.75
2017-12-25T15:07:49.623Z,8.75
2017-12-25T15:10:17.028Z,8.75
2017-12-25T15:12:44.451Z,8.74
2017-12-25T15:15:11.987Z,8.73
2017-12-25T15:17:39.403Z,8.70
2017-12-25T15:20:06.846Z,8.63
2017-12-25T15:22:34.335Z,8.64
2017-12-25T15:25:01.739Z,8.66
2017-12-25T15:27:29.166Z,8.65
2017-12-25T15:29:56.574Z,8.63
2017-12-25T15:32:24.056Z,8.63
2017-12-25T15:34:51.605Z,8.63
2017-12-25T15:37:19.005Z,8.63
2017-12-25T15:39:46.409Z,8.65
2017-12-25T15:42:13.825Z,8.66
2017-12-25T15:44:41.239Z,8.63
2017-12-25T15:47:08.666Z,8.62
2017-12-25T15:49:36.154Z,8.63
2017-12-25T15:52:03.595Z,8.61
2017-12-25T15:54:31.040Z,8.61
2017-12-25T15:56:58.519Z,8.64
2017-12-25T15:59:25.926Z,8.64
2017-12-25T16:01:53.354Z,8.60
2017-12-25T16:04:20.758Z,8.58
2017-12-25T16:06:48.338Z,8.58
2017-12-25T16:09:15.802Z,8.56
2017-12-25T16:11:43.354Z,8.52
2017-12-25T16:14:10.820Z,8.51
2017-12-25T16:16:38.581Z,8.52
2017-12-25T16:19:06.147Z,8.54
2017-12-25T16:21:33.932Z,8.50
2017-12-25T16:24:01.561Z,8.50
2017-12-25T16:26:29.256Z,8.47
2017-12-25T16:28:56.987Z,8.48
2017-12-25T16:31:24.855Z,8.49
2017-12-25T16:33:52.474Z,8.44
2017-12-25T16:36:20.279Z,8.40
2017-12-25T16:38:47.694Z,8.38
2017-12-25T16:41:15.105Z,8.39
2017-12-25T16:43:42.760Z,8.40
2017-12-25T16:46:10.241Z,8.38
2017-12-25T16:48:37.772Z,8.38
2017-12-25T16:51:05.231Z,8.39
2017-12-25T16:53:32.710Z,8.35
2017-12-25T16:56:00.477Z,8.37
2017-12-25T16:58:27.914Z,8.36
2017-12-25T17:00:55.376Z,8.34
2017-12-25T17:03:23.230Z,8.32
2017-12-25T17:05:50.892Z,8.34
2017-12-25T17:08:18.657Z,8.34
2017-12-25T17:10:46.637Z,8.29
2017-12-25T17:13:14.210Z,8.22
2017-12-25T17:15:41.703Z,8.18
2017-12-25T17:18:09.111Z,8.19
2017-12-25T17:20:36.656Z,8.20
2017-12-25T17:23:04.116Z,8.22
2017-12-25T17:25:31.587Z,8.20
2017-12-25T17:27:59.001Z,8.19
2017-12-25T17:30:26.457Z,8.17
2017-12-25T17:32:53.864Z,8.14
2017-12-25T17:35:21.313Z,8.14
2017-12-25T17:37:48.746Z,8.14
2017-12-25T17:40:16.151Z,8.10
2017-12-25T17:42:43.681Z,8.11
2017-12-25T17:45:11.436Z,8.11
2017-12-25T17:47:38.904Z,8.10
2017-12-25T17:50:06.372Z,8.06
2017-12-25T17:52:33.916Z,8.04
2017-12-25T17:55:01.375Z,8.02
2017-12-25T17:57:28.834Z,8.02
2017-12-25T17:59:56.282Z,8.01
2017-12-25T18:02:23.699Z,8.00
2017-12-25T18:04:51.943Z,7.97
2017-12-25T18:07:19.407Z,7.96
2017-12-25T18:09:46.813Z,7.95
2017-12-25T18:12:14.500Z,7.98
2017-12-25T18:14:41.933Z,7.96
2017-12-25T18:17:09.332Z,7.91
2017-12-25T18:19:36.868Z,7.87
2017-12-25T18:22:04.622Z,7.82
2017-12-25T18:24:32.287Z,7.83
2017-12-25T18:26:59.944Z,7.82
2017-12-25T18:29:27.408Z,7.78
2017-12-25T18:31:54.857Z,7.71
2017-12-25T18:34:22.271Z,7.74
2017-12-25T18:36:49.707Z,7.76
2017-12-25T18:39:17.147Z,7.77
2017-12-25T18:41:44.545Z,7.65
2017-12-25T18:44:11.986Z,7.63
2017-12-25T18:46:39.397Z,7.63
2017-12-25T18:49:06.793Z,7.62
2017-12-25T18:51:34.320Z,7.62
2017-12-25T18:54:01.871Z,7.64
2017-12-25T18:56:29.275Z,7.65
2017-12-25T18:58:56.790Z,7.67
2017-12-25T19:01:24.192Z,7.65
2017-12-25T19:03:51.703Z,7.65
2017-12-25T19:06:19.126Z,7.65
2017-12-25T19:08:46.547Z,7.64
2017-12-25T19:11:13.944Z,7.63
2017-12-25T19:13:41.422Z,7.65
2017-12-25T19:16:08.847Z,7.68
2017-12-25T19:18:36.441Z,7.67
2017-12-25T19:21:03.848Z,7.67
2017-12-25T19:23:31.373Z,7.67
2017-12-25T19:25:58.821Z,7.64
2017-12-25T19:28:26.224Z,7.65
2017-12-25T19:30:53.658Z,7.67
2017-12-25T19:33:21.059Z,7.70
2017-12-25T19:35:48.463Z,7.71
2017-12-25T19:38:15.899Z,7.74
2017-12-25T19:40:43.313Z,7.75
2017-12-25T19:43:10.711Z,7.76
2017-12-25T19:45:38.136Z,7.78
2017-12-25T19:48:05.623Z,7.94
2017-12-25T19:50:33.175Z,7.90
2017-12-25T19:53:00.619Z,7.81
2017-12-25T19:55:28.396Z,7.76
2017-12-25T19:57:55.829Z,7.69
2017-12-25T20:00:23.458Z,7.66
2017-12-25T20:02:50.902Z,7.58
2017-12-25T20:05:18.311Z,7.56
2017-12-25T20:07:45.840Z,7.54
2017-12-25T20:10:13.253Z,7.53
2017-12-25T20:12:40.708Z,7.54
2017-12-25T20:15:08.144Z,7.50
2017-12-25T20:17:35.895Z,7.52
2017-12-25T20:20:03.339Z,7.52
2017-12-25T20:22:30.846Z,7.47
2017-12-25T20:24:58.254Z,7.44
2017-12-25T20:27:25.665Z,7.41
2017-12-25T20:29:53.219Z,7.38
2017-12-25T20:32:20.695Z,7.39
2017-12-25T20:34:48.112Z,7.38
2017-12-25T20:37:15.552Z,7.34
2017-12-25T20:39:42.974Z,7.31
2017-12-25T20:42:10.497Z,7.30
2017-12-25T20:44:37.962Z,7.29
2017-12-25T20:47:05.379Z,7.24
2017-12-25T20:49:32.788Z,7.25
2017-12-25T20:52:00.231Z,7.28
2017-12-25T20:54:27.651Z,7.24
2017-12-25T20:56:55.059Z,7.22
2017-12-25T20:59:22.512Z,7.22
2017-12-25T21:01:49.951Z,7.22
2017-12-25T21:04:17.354Z,7.17
2017-12-25T21:06:44.786Z,7.16
2017-12-25T21:09:12.227Z,7.12
2017-12-25T21:11:39.679Z,7.10
2017-12-25T21:14:07.122Z,7.06
2017-12-25T21:16:34.522Z,7.00
2017-12-25T21:19:01.933Z,7.01
2017-12-25T21:21:29.358Z,6.92
2017-12-25T21:23:56.765Z,6.91
2017-12-25T21:26:24.203Z,6.88
2017-12-25T21:31:25.404Z,6.82
2017-12-25T21:33:52.847Z,6.82
2017-12-25T21:36:20.267Z,6.79
2017-12-25T21:38:47.667Z,6.71
2017-12-25T21:41:15.084Z,6.64
2017-12-25T21:43:42.511Z,6.53
2017-12-25T21:46:10.021Z,6.33
2017-12-25T21:48:37.479Z,6.15
2017-12-25T21:51:04.920Z,6.08
2017-12-25T21:53:32.322Z,6.01
2017-12-25T21:55:59.729Z,5.91
2017-12-25T21:58:27.157Z,5.84
2017-12-25T22:00:54.568Z,5.77
2017-12-25T22:03:21.982Z,5.69
2017-12-25T22:05:49.463Z,5.66
2017-12-25T22:08:16.878Z,5.64
2017-12-25T22:10:44.426Z,5.58
2017-12-25T22:13:11.831Z,5.51
2017-12-25T22:15:39.252Z,5.44
2017-12-25T22:18:06.691Z,5.39
2017-12-25T22:20:34.120Z,5.31
2017-12-25T22:23:01.523Z,5.27
2017-12-25T22:25:28.971Z,5.21
2017-12-25T22:27:56.379Z,5.15
2017-12-25T22:30:23.792Z,5.14
2017-12-25T22:32:51.219Z,5.14
2017-12-25T22:35:18.791Z,5.09
2017-12-25T22:37:46.217Z,5.08
2017-12-25T22:40:13.628Z,5.06
2017-12-25T22:42:41.067Z,5.06
2017-12-25T22:45:08.851Z,5.00
2017-12-25T22:47:36.259Z,4.97
2017-12-25T22:50:03.682Z,4.91
2017-12-25T22:52:31.814Z,4.88
2017-12-25T22:54:59.219Z,4.83
2017-12-25T22:57:26.646Z,4.79
2017-12-25T22:59:54.094Z,4.81
2017-12-25T23:02:21.591Z,4.79
2017-12-25T23:04:49.016Z,4.75
2017-12-25T23:07:16.447Z,4.68
2017-12-25T23:09:43.863Z,4.68
2017-12-25T23:12:11.306Z,4.70
2017-12-25T23:14:38.720Z,4.65
2017-12-25T23:17:06.143Z,4.64
2017-12-25T23:19:33.587Z,4.60
2017-12-25T23:22:01.009Z,4.58
2017-12-25T23:24:28.426Z,4.53
2017-12-25T23:26:55.856Z,4.50
2017-12-25T23:29:23.280Z,4.50
2017-12-25T23:31:50.735Z,4.46
2017-12-25T23:34:18.152Z,4.43
2017-12-25T23:36:45.568Z,4.40
2017-12-25T23:39:13.020Z,4.39
2017-12-25T23:41:40.431Z,4.36
2017-12-25T23:44:07.857Z,4.29
2017-12-25T23:46:35.293Z,4.23
2017-12-25T23:49:02.715Z,4.17
2017-12-25T23:51:30.121Z,4.14
2017-12-25T23:53:57.601Z,4.09
2017-12-25T23:56:25.121Z,4.02
2017-12-25T23:58:52.536Z,3.97
